Time;durP1;ratioP1;P1;durP2;ratioP2;P2;SDS_P1;SDS_P2;PMS_P1;PMS_P2;Temp;Humidity;BMP_temperature;BMP_pressure;BME280_temperature;BME280_humidity;BME280_pressure;Samples;Min_cycle;Max_cycle;Signal;HPM_P1;HPM_P2
2021/11/08 00:00:30;;;;;;;0.88;0.88;;;18.60;66.10;;;22.43;37.50;94901.97;6107614;19;20022;-65
2021/11/08 00:02:32;;;;;;;1.02;0.93;;;18.60;66.10;;;22.42;38.03;94895.75;6106003;19;20530;-65
2021/11/08 00:04:34;;;;;;;0.80;0.80;;;18.60;66.10;;;22.43;37.71;94896.56;6110879;19;20390;-65
2021/11/08 00:06:36;;;;;;;1.20;1.05;;;18.70;66.40;;;22.44;37.62;94898.13;6112536;19;20775;-65
2021/11/08 00:08:38;;;;;;;1.00;0.90;;;18.70;66.40;;;22.44;37.89;94898.13;6107890;19;20023;-65
2021/11/08 00:10:39;;;;;;;0.85;0.85;;;18.70;66.40;;;22.45;37.46;94899.72;6102796;19;20053;-64
2021/11/08 00:12:40;;;;;;;0.80;0.80;;;18.70;66.50;;;22.45;37.93;94903.25;6104376;19;20010;-64
2021/11/08 00:14:41;;;;;;;0.65;0.65;;;18.70;66.50;;;22.45;37.87;94888.88;6100102;19;20022;-64
2021/11/08 00:16:50;;;;;;;1.42;0.90;;;18.60;67.10;;;22.45;37.70;94889.66;6106244;19;20019;-65
2021/11/08 00:19:17;;;;;;;1.00;1.00;;;18.70;66.50;;;22.45;37.81;94889.66;6109017;19;20348;-65
2021/11/08 00:21:19;;;;;;;0.50;0.50;;;18.70;66.50;;;22.45;37.57;94902.44;6110605;19;20010;-65
2021/11/08 00:23:20;;;;;;;0.90;0.90;;;18.60;66.40;;;22.44;37.69;94893.50;6092898;19;20018;-64
2021/11/08 00:25:21;;;;;;;0.80;0.80;;;18.60;66.50;;;22.45;37.60;94886.94;6089868;19;20015;-64
2021/11/08 00:27:22;;;;;;;0.70;0.70;;;18.70;66.60;;;22.45;37.56;94895.09;6095875;19;20475;-64
2021/11/08 00:29:23;;;;;;;1.35;0.75;;;18.60;66.50;;;22.46;37.91;94899.41;6088299;19;20017;-64
2021/11/08 00:31:24;;;;;;;0.65;0.63;;;18.70;66.70;;;22.45;37.66;94897.00;6105659;19;20010;-65
2021/11/08 00:33:25;;;;;;;0.75;0.70;;;18.70;66.70;;;22.45;37.78;94900.53;6108947;19;20019;-64
2021/11/08 00:35:26;;;;;;;0.95;0.70;;;18.60;66.60;;;22.45;37.66;94899.72;6109922;19;20042;-65
2021/11/08 00:37:27;;;;;;;1.05;0.90;;;18.60;66.60;;;22.44;37.57;94901.66;6110794;19;20547;-64
2021/11/08 00:39:28;;;;;;;0.52;0.52;;;18.60;66.70;;;22.45;37.52;94899.72;6108778;19;20035;-65
2021/11/08 00:41:29;;;;;;;0.75;0.75;;;18.60;66.60;;;22.43;37.96;94905.50;6105069;19;20515;-64
2021/11/08 00:43:30;;;;;;;0.70;0.70;;;18.70;66.90;;;22.43;37.98;94908.22;6105806;19;20079;-64
2021/11/08 00:45:32;;;;;;;0.90;0.90;;;18.60;66.80;;;22.42;37.85;94903.09;6106411;19;20033;-63
2021/11/08 00:47:34;;;;;;;0.90;0.90;;;18.60;66.80;;;22.41;38.01;94905.00;6103457;19;20022;-64
2021/11/08 00:49:38;;;;;;;0.77;0.77;;;18.60;66.90;;;22.41;37.69;94906.91;6105426;19;20389;-64
2021/11/08 00:51:43;;;;;;;0.73;0.73;;;18.60;66.90;;;22.40;37.76;94908.03;6105966;19;20774;-64
2021/11/08 00:53:45;;;;;;;0.90;0.80;;;18.60;67.00;;;22.40;37.68;94908.03;6105032;19;20015;-64
2021/11/08 00:55:51;;;;;;;0.70;0.70;;;18.60;67.00;;;22.38;37.96;94905.66;6106701;19;20040;-63
2021/11/08 00:57:53;;;;;;;0.80;0.80;;;18.60;67.00;;;22.38;37.94;94905.66;6110380;19;20042;-63
2021/11/08 00:59:55;;;;;;;0.70;0.70;;;18.60;67.00;;;22.37;38.12;94906.00;6112355;19;20021;-63
2021/11/08 01:01:58;;;;;;;0.75;0.65;;;18.50;66.90;;;22.37;37.82;94914.13;6111557;19;20010;-63
2021/11/08 01:03:58;;;;;;;1.25;0.77;;;18.60;67.10;;;22.35;38.13;94910.97;6110215;19;20011;-64
2021/11/08 01:06:00;;;;;;;0.68;0.68;;;18.50;67.00;;;22.33;38.30;94914.00;6110381;19;20011;-64
2021/11/08 01:08:02;;;;;;;0.70;0.70;;;18.50;67.10;;;22.32;38.20;94906.19;6111020;19;20019;-61
2021/11/08 01:10:09;;;;;;;0.75;0.75;;;18.50;67.10;;;22.32;37.79;94912.41;6109496;19;20123;-58
2021/11/08 01:12:10;;;;;;;1.15;0.85;;;18.50;67.10;;;22.30;37.89;94909.22;6110759;19;20044;-61
2021/11/08 01:14:11;;;;;;;0.60;0.60;;;18.50;67.10;;;22.31;38.39;94920.88;6109128;19;20011;-60
2021/11/08 01:16:13;;;;;;;0.75;0.75;;;18.50;67.30;;;22.31;37.85;94915.47;6109598;19;20483;-61
2021/11/08 01:18:14;;;;;;;0.80;0.63;;;18.50;68.00;;;22.30;38.24;94913.88;6110943;19;20415;-61
2021/11/08 01:20:15;;;;;;;0.93;0.80;;;18.50;67.30;;;22.29;38.14;94915.78;6111112;19;20051;-59
2021/11/08 01:22:17;;;;;;;0.70;0.70;;;18.50;67.40;;;22.29;38.15;94920.41;6112919;19;20345;-60
2021/11/08 01:24:18;;;;;;;0.80;0.60;;;18.50;67.40;;;22.29;37.96;94923.13;6116285;19;20026;-60
2021/11/08 01:26:19;;;;;;;1.23;0.80;;;18.50;67.50;;;22.27;38.04;94923.47;6118196;19;20816;-61
2021/11/08 01:28:27;;;;;;;0.70;0.70;;;18.50;67.50;;;22.27;38.31;94919.94;6117942;19;20025;-60
2021/11/08 01:30:28;;;;;;;0.60;0.60;;;18.50;67.40;;;22.25;38.27;94925.72;6114531;19;20064;-61
2021/11/08 01:32:29;;;;;;;0.93;0.82;;;18.50;67.60;;;22.25;37.96;94922.19;6114194;19;20367;-58
2021/11/08 01:34:30;;;;;;;0.60;0.60;;;18.50;67.50;;;22.25;37.99;94920.28;6117712;19;20006;-60
2021/11/08 01:36:38;;;;;;;1.00;0.90;;;18.50;67.50;;;22.25;38.41;94923.00;6114330;19;20018;-60
2021/11/08 01:38:46;;;;;;;0.57;0.57;;;18.50;67.60;;;22.25;38.18;94919.50;6120356;19;20007;-59
2021/11/08 01:40:48;;;;;;;0.80;0.80;;;18.50;67.60;;;22.24;38.24;94923.31;6112387;19;20014;-61
2021/11/08 01:42:49;;;;;;;1.13;0.70;;;18.40;67.50;;;22.23;38.38;94917.09;6115840;19;20006;-61
2021/11/08 01:44:50;;;;;;;0.75;0.75;;;18.40;67.50;;;22.22;38.07;94917.44;6113282;19;20014;-60
2021/11/08 01:46:51;;;;;;;0.60;0.60;;;18.40;67.60;;;22.23;38.30;94916.31;6117786;19;20006;-60
2021/11/08 01:48:52;;;;;;;0.70;0.70;;;18.50;67.80;;;22.24;38.13;94920.63;6114486;19;20011;-60
2021/11/08 01:50:54;;;;;;;0.55;0.55;;;18.50;67.90;;;22.24;38.25;94915.19;6116300;19;20021;-60
2021/11/08 01:52:56;;;;;;;0.73;0.70;;;18.50;68.00;;;22.24;38.27;94917.91;6112497;19;20010;-61
2021/11/08 01:54:58;;;;;;;0.70;0.70;;;18.40;67.90;;;22.24;38.16;94915.97;6116497;19;20019;-60
2021/11/08 01:56:59;;;;;;;0.77;0.77;;;18.50;68.20;;;22.25;38.37;94911.34;6114531;19;20013;-61
2021/11/08 01:59:00;;;;;;;0.45;0.40;;;18.50;68.20;;;22.26;38.34;94915.66;6117960;19;20010;-60
2021/11/08 02:01:02;;;;;;;0.60;0.60;;;18.50;68.30;;;22.26;38.50;94919.16;6107292;19;20110;-60
2021/11/08 02:03:03;;;;;;;0.93;0.60;;;18.50;68.40;;;22.27;38.61;94917.25;6110053;19;20479;-60
2021/11/08 02:05:05;;;;;;;0.63;0.63;;;18.50;68.50;;;22.28;38.23;94918.84;6109057;19;20022;-60
2021/11/08 02:07:06;;;;;;;0.65;0.60;;;18.50;68.60;;;22.28;38.19;94916.13;6110479;19;20108;-61
2021/11/08 02:09:07;;;;;;;0.50;0.50;;;18.50;68.70;;;22.28;38.25;94922.34;6112077;19;20010;-60
2021/11/08 02:11:08;;;;;;;0.60;0.60;;;18.50;68.60;;;22.28;38.22;94918.84;6109467;19;20447;-60
2021/11/08 02:13:09;;;;;;;0.88;0.63;;;18.50;68.60;;;22.28;38.17;94913.41;6111856;19;20022;-60
2021/11/08 02:15:19;;;;;;;0.57;0.50;;;18.50;68.60;;;22.28;38.20;94918.84;6109029;19;20006;-60
2021/11/08 02:17:19;;;;;;;0.70;0.70;;;18.50;68.70;;;22.28;38.31;94916.13;6112967;19;20006;-60
2021/11/08 02:19:21;;;;;;;0.50;0.50;;;18.50;68.80;;;22.27;38.14;94915.31;6112268;19;20019;-59
2021/11/08 02:21:23;;;;;;;0.50;0.50;;;18.40;68.60;;;22.28;38.24;94921.53;6109562;19;20026;-58
2021/11/08 02:23:25;;;;;;;0.50;0.50;;;18.50;68.70;;;22.27;38.71;94926.19;6106465;19;20015;-60
2021/11/08 02:25:28;;;;;;;2.05;0.77;;;18.50;68.80;;;22.27;38.67;94934.31;6108508;19;20021;-61
2021/11/08 02:27:29;;;;;;;0.55;0.55;;;18.40;68.60;;;22.27;38.68;94933.53;6107024;19;20024;-60
2021/11/08 02:29:30;;;;;;;0.50;0.50;;;18.40;68.70;;;22.26;38.44;94927.31;6107056;19;20036;-60
2021/11/08 02:31:33;;;;;;;0.60;0.60;;;18.40;68.60;;;22.26;38.67;94931.94;6108521;19;20081;-59
2021/11/08 02:33:34;;;;;;;0.40;0.40;;;18.50;68.80;;;22.25;38.66;94930.34;6106385;19;20015;-61
2021/11/08 02:35:36;;;;;;;0.40;0.40;;;18.40;68.60;;;22.25;38.41;94935.78;6112173;19;20019;-60
2021/11/08 02:37:39;;;;;;;0.55;0.52;;;18.40;68.60;;;22.24;38.75;94928.75;6113369;19;20019;-60
2021/11/08 02:39:42;;;;;;;0.50;0.50;;;18.40;68.60;;;22.24;38.67;94926.03;6113303;19;20018;-59
2021/11/08 02:41:43;;;;;;;0.77;0.50;;;18.50;68.80;;;22.23;38.33;94927.16;6114897;19;20015;-59
2021/11/08 02:43:45;;;;;;;0.85;0.60;;;18.40;68.60;;;22.22;38.79;94922.88;6111368;19;20019;-60
2021/11/08 02:46:27;;;;;;;0.45;0.45;;;18.40;68.60;;;22.22;38.48;94933.72;6114645;19;20077;-60
2021/11/08 02:48:20;;;;;;;1.30;0.55;;;18.40;68.70;;;22.20;38.36;94929.41;6115511;19;20014;-61
2021/11/08 02:50:26;;;;;;;0.60;0.60;;;18.50;68.80;;;22.19;38.18;94927.81;6117554;19;20038;-61
2021/11/08 02:52:28;;;;;;;0.50;0.50;;;18.40;68.70;;;22.17;38.31;94923.84;6113256;19;20018;-60
2021/11/08 02:54:36;;;;;;;0.47;0.47;;;18.40;68.70;;;22.16;38.72;94924.97;6112645;19;20026;-61
2021/11/08 02:56:37;;;;;;;1.52;0.47;;;18.40;68.80;;;22.15;38.29;94924.19;6114867;19;20038;-61
2021/11/08 02:58:42;;;;;;;0.50;0.50;;;18.40;68.70;;;22.16;38.69;94925.78;6112264;19;20014;-61
2021/11/08 03:00:43;;;;;;;0.60;0.60;;;18.40;68.80;;;22.14;38.58;94925.31;6114735;19;20006;-61
2021/11/08 03:02:46;;;;;;;0.45;0.45;;;18.40;68.80;;;22.14;38.27;94922.59;6112207;19;20014;-60
2021/11/08 03:04:52;;;;;;;;;;;18.40;68.80;;;22.13;38.39;94931.84;6113239;19;20366;-61
2021/11/08 03:06:53;;;;;;;0.47;0.47;;;18.40;68.80;;;22.12;38.77;94932.19;6112849;19;19919;-60
2021/11/08 03:08:56;;;;;;;0.40;0.40;;;18.40;68.80;;;22.12;38.45;94927.56;6114014;19;20010;-61
2021/11/08 03:10:58;;;;;;;1.27;0.63;;;18.30;68.90;;;22.11;38.44;94934.09;6114259;19;20046;-60
2021/11/08 03:13:07;;;;;;;0.40;0.40;;;18.30;69.60;;;22.11;38.17;94925.97;6113651;19;20062;-63
2021/11/08 03:17:46;;;;;;;1.63;0.40;;;18.30;69.00;;;22.10;38.64;94934.44;6110987;19;20026;-59
2021/11/08 03:19:47;;;;;;;0.50;0.50;;;18.30;69.00;;;22.11;38.49;94927.88;6114196;19;20074;-61
2021/11/08 03:21:50;;;;;;;0.40;0.40;;;18.30;69.20;;;22.11;38.64;94939.53;6115183;19;20010;-61
2021/11/08 03:23:53;;;;;;;1.73;0.50;;;18.30;69.30;;;22.12;39.05;94929.47;6113880;19;20022;-60
2021/11/08 03:26:11;;;;;;;0.52;0.52;;;18.30;69.30;;;22.12;38.57;94932.97;6114570;19;20054;-60
2021/11/08 03:28:13;;;;;;;0.63;0.63;;;18.30;69.30;;;22.12;38.42;94935.69;6110856;19;20786;-60
2021/11/08 03:30:19;;;;;;;0.60;0.60;;;18.40;69.50;;;22.13;38.44;94937.28;6111143;19;20040;-60
2021/11/08 03:32:21;;;;;;;0.50;0.50;;;18.30;69.40;;;22.13;38.88;94931.84;6114234;19;20288;-61
2021/11/08 03:34:22;;;;;;;0.40;0.40;;;18.30;69.50;;;22.14;38.78;94933.44;6064684;19;20002;-61
2021/11/08 03:36:26;;;;;;;0.52;0.52;;;18.30;69.50;;;22.14;38.87;94936.16;6064738;19;20435;-59
2021/11/08 03:38:27;;;;;;;0.60;0.60;;;18.30;69.60;;;22.16;39.10;94942.06;6061935;19;20096;-60
2021/11/08 03:40:38;;;;;;;0.40;0.40;;;18.30;69.60;;;22.17;38.88;94946.38;6061855;19;21215;-61
2021/11/08 03:42:40;;;;;;;0.50;0.50;;;18.30;69.60;;;22.17;38.88;94940.94;6062961;19;20006;-60
2021/11/08 03:44:41;;;;;;;1.77;0.50;;;18.30;69.80;;;22.18;38.58;94950.66;6061795;19;20015;-60
2021/11/08 03:46:42;;;;;;;0.52;0.50;;;18.30;69.70;;;22.18;38.81;94941.72;6060090;19;20104;-59
2021/11/08 03:48:44;;;;;;;0.60;0.50;;;18.30;69.80;;;22.19;38.62;94944.13;6064939;19;20917;-61
2021/11/08 03:50:45;;;;;;;0.50;0.50;;;18.40;70.00;;;22.18;38.87;94944.44;6077820;19;20008;-61
2021/11/08 03:52:46;;;;;;;1.50;0.40;;;18.30;69.80;;;22.19;38.78;94946.84;6058439;19;20054;-59
2021/11/08 03:54:47;;;;;;;0.40;0.40;;;18.30;69.90;;;22.19;38.64;94946.03;6069183;19;20006;-60
2021/11/08 03:56:48;;;;;;;0.50;0.50;;;18.30;69.90;;;22.20;38.70;94953.84;6073383;19;20594;-59
2021/11/08 03:58:50;;;;;;;0.30;0.30;;;18.30;69.90;;;22.20;38.67;94951.13;6070411;19;20684;-60
2021/11/08 04:00:51;;;;;;;0.75;0.55;;;18.30;69.90;;;22.19;38.83;94952.25;6061410;19;20011;-60
2021/11/08 04:02:54;;;;;;;0.43;0.40;;;18.30;69.90;;;22.19;38.90;94952.25;6055297;19;20392;-60
2021/11/08 04:04:56;;;;;;;0.40;0.40;;;18.30;69.90;;;22.20;38.35;94958.50;6065108;19;20018;-61
2021/11/08 04:06:57;;;;;;;0.43;0.43;;;18.30;69.90;;;22.19;38.43;94952.25;6076392;19;20006;-60
2021/11/08 04:08:59;;;;;;;2.28;0.70;;;18.30;69.90;;;22.19;38.57;94954.97;6079263;19;20106;-59
2021/11/08 04:11:00;;;;;;;0.40;0.40;;;18.30;69.90;;;22.16;38.82;94952.91;6079577;19;20010;-59
2021/11/08 04:13:04;;;;;;;0.50;0.50;;;18.30;69.80;;;22.16;38.81;94949.41;6075753;19;20019;-61
2021/11/08 04:15:13;;;;;;;0.50;0.40;;;18.30;69.90;;;22.14;38.72;94949.75;6075527;19;20021;-60
2021/11/08 04:17:14;;;;;;;1.50;0.40;;;18.30;69.90;;;22.14;39.02;94954.38;6077999;19;20018;-61
2021/11/08 04:19:16;;;;;;;0.43;0.43;;;18.30;70.00;;;22.15;38.79;94961.41;6072088;19;20014;-58
2021/11/08 04:21:18;;;;;;;1.02;0.60;;;18.30;69.90;;;22.14;38.92;94962.53;6070500;19;20034;-60
2021/11/08 04:23:23;;;;;;;0.40;0.40;;;18.30;70.00;;;22.13;39.03;94964.44;6081332;19;20018;-61
2021/11/08 04:25:25;;;;;;;0.35;0.35;;;18.30;70.00;;;22.12;38.62;94962.84;6063354;19;20037;-58
2021/11/08 04:27:26;;;;;;;0.50;0.50;;;18.30;69.90;;;22.11;39.04;94961.25;6068139;19;20077;-60
2021/11/08 04:29:27;;;;;;;0.40;0.40;;;18.30;70.00;;;22.12;38.83;94968.28;6082270;19;20605;-61
2021/11/08 04:31:35;;;;;;;0.55;0.55;;;18.30;70.00;;;22.12;38.69;94962.84;6059972;19;23313;-60
2021/11/08 04:33:45;;;;;;;0.40;0.40;;;18.30;69.90;;;22.11;39.05;94957.75;6067336;19;20006;-61
2021/11/08 04:36:17;;;;;;;1.20;0.40;;;18.30;70.00;;;22.08;38.66;94961.91;6078881;19;20017;-61
2021/11/08 04:45:23;;;;;;;0.40;0.40;;;18.30;70.20;;;22.03;38.93;94961.25;6073602;19;20062;-62
2021/11/08 05:30:12;;;;;;;0.20;0.20;;;18.20;71.00;;;22.08;39.41;94983.63;6063721;19;20446;-62
2021/11/08 05:32:13;;;;;;;0.30;0.30;;;18.20;71.00;;;22.09;39.37;94990.66;6065215;19;20015;-60
2021/11/08 05:34:15;;;;;;;0.45;0.45;;;18.20;71.10;;;22.10;39.28;94991.44;6071801;19;20010;-60
2021/11/08 05:36:16;;;;;;;0.40;0.40;;;18.20;70.90;;;22.10;39.06;94997.66;6071810;19;20018;-61
2021/11/08 05:38:17;;;;;;;0.63;0.45;;;18.20;71.00;;;22.10;39.08;94992.25;6084472;19;20014;-61
2021/11/08 05:40:30;;;;;;;0.47;0.47;;;18.20;71.00;;;22.10;38.96;94994.16;6072785;19;20451;-61
2021/11/08 05:42:32;;;;;;;0.40;0.40;;;18.20;71.00;;;22.10;38.92;94994.16;6076034;19;21124;-61
2021/11/08 05:44:34;;;;;;;0.40;0.40;;;18.20;71.10;;;22.09;39.14;94990.66;6073585;19;20038;-60
2021/11/08 05:46:36;;;;;;;0.30;0.30;;;18.20;71.00;;;22.09;39.08;94995.28;6076550;19;20035;-60
2021/11/08 05:48:37;;;;;;;0.40;0.40;;;18.20;71.00;;;22.08;39.16;94989.06;6068271;19;21284;-60
2021/11/08 05:50:42;;;;;;;0.50;0.50;;;18.20;71.00;;;22.07;39.31;94995.59;6072053;19;20025;-61
2021/11/08 05:52:48;;;;;;;8.45;0.50;;;18.20;71.10;;;22.07;39.17;94997.53;6067407;19;21136;-60
2021/11/08 05:54:49;;;;;;;3.72;0.60;;;18.20;71.20;;;22.10;39.35;94999.59;6070971;19;20018;-63
2021/11/08 06:49:41;;;;;;;0.93;0.50;;;18.20;72.10;;;22.05;39.51;95043.22;6063171;19;20021;-62
2021/11/08 06:51:43;;;;;;;0.70;0.70;;;18.20;72.00;;;22.05;39.41;95054.88;6060536;19;20491;-61
2021/11/08 06:53:46;;;;;;;0.88;0.50;;;18.20;72.10;;;22.05;39.25;95057.56;6064171;19;20014;-62
2021/11/08 06:55:50;;;;;;;0.82;0.40;;;18.20;72.10;;;22.06;39.57;95050.22;6071574;19;20082;-62
2021/11/08 06:58:00;;;;;;;0.98;0.60;;;18.20;72.10;;;22.06;39.39;95055.66;6061163;19;20056;-62
2021/11/08 07:00:03;;;;;;;0.50;0.50;;;18.20;72.10;;;22.06;39.31;95055.66;6059358;19;20007;-62
2021/11/08 07:02:04;;;;;;;0.73;0.50;;;18.20;72.10;;;22.07;39.58;95066.19;6072444;19;20006;-60
2021/11/08 07:04:05;;;;;;;0.40;0.40;;;18.20;72.10;;;22.07;39.13;95058.06;6067912;19;21000;-61
2021/11/08 07:06:06;;;;;;;0.85;0.40;;;18.20;72.10;;;22.07;39.35;95054.53;6071599;19;20010;-61
2021/11/08 07:08:07;;;;;;;1.52;0.40;;;18.20;72.10;;;22.07;39.50;95052.63;6051389;19;20011;-62
2021/11/08 07:10:08;;;;;;;0.40;0.40;;;18.20;72.20;;;22.08;39.18;95062.34;6071595;19;20022;-60
2021/11/08 07:12:11;;;;;;;1.13;0.40;;;18.20;72.20;;;22.07;39.41;95057.25;6050687;19;20010;-64
2021/11/08 07:14:12;;;;;;;1.98;0.55;;;18.20;72.10;;;22.07;39.43;95060.75;6065053;19;20015;-64
2021/11/08 07:16:13;;;;;;;0.50;0.40;;;18.20;72.10;;;22.08;39.14;95061.56;6055309;19;20146;-62
2021/11/08 07:18:15;;;;;;;0.85;0.50;;;18.20;72.10;;;22.08;39.40;95069.69;6049751;19;20102;-62
2021/11/08 07:20:17;;;;;;;0.52;0.50;;;18.20;72.10;;;22.07;39.15;95063.47;6056138;19;20014;-62
2021/11/08 07:22:18;;;;;;;0.40;0.40;;;18.20;72.30;;;22.08;39.35;95064.28;6066953;19;20086;-61
2021/11/08 07:24:19;;;;;;;0.60;0.60;;;18.10;72.20;;;22.08;39.21;95073.22;6065209;19;20006;-62
2021/11/08 07:26:20;;;;;;;1.30;0.52;;;18.20;72.20;;;22.08;39.22;95069.69;6063002;19;20737;-61
2021/11/08 07:28:21;;;;;;;1.23;0.40;;;18.20;72.20;;;22.08;39.33;95075.94;6041194;19;20014;-61
2021/11/08 07:30:23;;;;;;;0.50;0.50;;;18.20;72.10;;;22.07;39.55;95068.91;6045572;19;20052;-64
2021/11/08 07:32:25;;;;;;;1.52;0.50;;;18.20;72.00;;;22.08;39.48;95069.69;6049152;19;20007;-60
2021/11/08 07:34:25;;;;;;;0.80;0.60;;;18.20;71.80;;;22.07;39.01;95074.34;6071751;19;20022;-60
2021/11/08 07:36:27;;;;;;;3.85;0.90;;;18.20;71.60;;;22.06;39.34;95078.19;6070890;19;20027;-61
2021/11/08 07:38:28;;;;;;;1.50;0.60;;;18.20;71.50;;;22.04;38.90;95077.69;6083877;19;20106;-64
2021/11/08 07:40:29;;;;;;;0.57;0.50;;;18.20;71.40;;;22.03;39.43;95078.81;6080528;19;20006;-64
2021/11/08 07:42:30;;;;;;;0.45;0.45;;;18.20;71.40;;;22.04;39.09;95076.91;6097807;19;20466;-62
2021/11/08 07:44:31;;;;;;;0.88;0.60;;;18.20;71.20;;;22.03;39.35;95078.81;6078918;19;20013;-61
2021/11/08 07:46:32;;;;;;;1.83;0.60;;;18.20;71.10;;;22.02;39.10;95076.41;6090082;19;20018;-64
2021/11/08 07:48:33;;;;;;;0.77;0.77;;;18.20;70.90;;;22.01;39.01;95083.72;6083475;19;20006;-60
2021/11/08 07:50:35;;;;;;;5.43;0.88;;;18.20;70.70;;;22.01;38.95;95085.63;6101953;19;20022;-62
2021/11/08 07:52:36;;;;;;;1.00;0.80;;;18.20;70.50;;;22.00;38.79;95075.91;6077406;19;20431;-62
2021/11/08 07:54:38;;;;;;;0.60;0.60;;;18.20;70.30;;;21.97;38.70;95074.63;6080488;19;20022;-62
2021/11/08 07:56:39;;;;;;;0.65;0.65;;;18.20;70.00;;;21.99;39.14;95077.03;6061301;19;20018;-60
2021/11/08 07:58:40;;;;;;;1.40;0.90;;;18.20;69.80;;;22.00;38.63;95073.19;6060114;19;20047;-60
2021/11/08 08:00:43;;;;;;;0.77;0.60;;;18.20;69.40;;;22.00;38.49;95075.91;6066003;19;20773;-60
2021/11/08 08:02:44;;;;;;;0.95;0.70;;;18.20;69.30;;;21.98;38.37;95070.78;6071146;19;20018;-60
2021/11/08 08:04:45;;;;;;;3.10;0.80;;;18.20;69.50;;;21.99;38.39;95072.38;6070684;19;20066;-59
2021/11/08 08:06:48;;;;;;;1.10;1.00;;;18.20;69.60;;;21.98;38.70;95073.50;6073315;19;20026;-59
2021/11/08 08:08:50;;;;;;;1.65;0.90;;;18.20;69.70;;;21.99;38.84;95071.59;6065748;19;20486;-59
2021/11/08 08:10:53;;;;;;;0.60;0.60;;;18.20;69.80;;;21.99;38.70;95072.38;6063650;19;20042;-60
2021/11/08 08:12:54;;;;;;;0.70;0.70;;;18.20;69.80;;;22.01;38.81;95077.50;6060306;19;20030;-60
2021/11/08 08:14:55;;;;;;;1.17;0.93;;;18.20;69.90;;;22.01;38.45;95074.78;6068340;19;20138;-60
2021/11/08 08:16:56;;;;;;;2.35;0.95;;;18.20;69.90;;;22.01;38.71;95075.56;6053560;19;20010;-59
2021/11/08 08:18:57;;;;;;;1.42;1.00;;;18.20;69.90;;;22.02;38.59;95077.19;6052795;19;20383;-60
2021/11/08 08:20:58;;;;;;;2.33;0.82;;;18.20;70.00;;;22.03;38.89;95081.53;6060851;19;20002;-60
2021/11/08 08:22:59;;;;;;;1.90;0.90;;;18.20;70.00;;;22.03;39.07;95073.41;6054726;19;20014;-60
2021/11/08 08:25:00;;;;;;;1.63;0.95;;;18.20;70.00;;;22.03;38.55;95078.00;6062977;19;20023;-59
2021/11/08 08:27:04;;;;;;;2.22;0.90;;;18.20;70.00;;;22.04;39.03;95080.41;6077159;19;20049;-59
2021/11/08 08:29:07;;;;;;;1.77;1.10;;;18.20;70.00;;;22.05;39.00;95082.00;6054857;19;20590;-60
2021/11/08 08:31:08;;;;;;;1.17;0.85;;;18.20;70.10;;;22.04;38.92;95077.69;6067754;19;20018;-59
2021/11/08 08:33:09;;;;;;;1.83;0.70;;;18.20;70.20;;;22.05;38.50;95081.22;6070465;19;20475;-60
2021/11/08 08:35:10;;;;;;;0.82;0.70;;;18.20;70.20;;;22.05;39.02;95081.22;6074572;19;20026;-59
2021/11/08 08:37:11;;;;;;;2.92;0.93;;;18.20;70.20;;;22.05;38.80;95078.50;6074115;19;20065;-60
2021/11/08 08:39:12;;;;;;;1.23;0.95;;;18.20;70.40;;;22.04;38.90;95075.00;6081012;19;20018;-60
2021/11/08 08:41:13;;;;;;;2.97;0.82;;;18.20;70.30;;;22.05;38.85;95073.06;6062415;19;20361;-60
2021/11/08 08:43:15;;;;;;;1.30;0.90;;;18.20;70.30;;;22.04;38.51;95080.41;6073662;19;20014;-59
2021/11/08 08:45:16;;;;;;;2.83;0.82;;;18.20;70.30;;;22.05;38.69;95078.50;6079254;19;20069;-59
2021/11/08 08:47:17;;;;;;;1.73;0.82;;;18.20;70.40;;;22.05;38.53;95065.72;6074897;19;20169;-59
2021/11/08 08:49:18;;;;;;;0.77;0.70;;;18.20;70.50;;;22.06;39.13;95069.22;6072150;19;20022;-60
2021/11/08 08:51:20;;;;;;;0.77;0.70;;;18.20;70.40;;;22.05;39.01;95078.50;6080736;19;20035;-60
2021/11/08 08:53:21;;;;;;;0.80;0.55;;;18.20;70.40;;;22.05;38.68;95076.56;6061845;19;20013;-59
2021/11/08 08:55:23;;;;;;;1.83;0.80;;;18.20;70.50;;;22.05;38.85;95073.06;6071456;19;20018;-60
2021/11/08 08:57:23;;;;;;;0.60;0.60;;;18.20;70.50;;;22.05;39.09;95071.16;6073211;19;20017;-60
2021/11/08 08:59:25;;;;;;;1.20;1.02;;;18.20;70.40;;;22.06;38.82;95071.94;6068209;19;20003;-59
2021/11/08 09:01:26;;;;;;;0.93;0.70;;;18.20;70.40;;;22.05;38.57;95071.16;6060463;19;20471;-59
2021/11/08 09:03:27;;;;;;;0.82;0.60;;;18.20;70.40;;;22.05;39.02;95079.28;6066651;19;20018;-59
2021/11/08 09:05:28;;;;;;;1.48;0.90;;;18.20;70.50;;;22.05;38.94;95075.78;6073739;19;20103;-59
2021/11/08 09:07:28;;;;;;;2.92;0.80;;;18.20;70.50;;;22.05;38.75;95073.06;6072915;19;20017;-59
2021/11/08 09:09:30;;;;;;;1.23;0.70;;;18.20;70.50;;;22.05;38.97;95071.16;6072968;19;20034;-59
2021/11/08 09:11:34;;;;;;;1.08;0.90;;;18.20;70.50;;;22.04;38.73;95072.28;6079429;19;20010;-60
2021/11/08 09:13:36;;;;;;;0.70;0.60;;;18.20;70.50;;;22.05;38.76;95073.06;6068191;19;20099;-60
2021/11/08 09:15:38;;;;;;;1.90;0.82;;;18.20;70.60;;;22.04;38.74;95080.41;6060901;19;20404;-60
2021/11/08 09:17:39;;;;;;;1.75;0.60;;;18.20;70.50;;;22.04;38.86;95080.41;6077551;19;20094;-60
2021/11/08 09:19:40;;;;;;;1.17;0.70;;;18.20;70.60;;;22.05;38.87;95089.34;6074905;19;20018;-60
2021/11/08 09:21:41;;;;;;;1.08;0.60;;;18.20;70.50;;;22.04;38.75;95090.47;6070583;19;20014;-60
2021/11/08 09:23:42;;;;;;;1.02;0.70;;;18.20;70.60;;;22.04;38.99;95091.28;6075989;19;20026;-60
2021/11/08 09:25:43;;;;;;;1.10;0.70;;;18.20;70.60;;;22.04;38.73;95088.56;6074175;19;20022;-60
2021/11/08 09:27:46;;;;;;;0.80;0.77;;;18.20;70.60;;;22.03;39.02;95088.84;6069869;19;20015;-59
2021/11/08 09:29:47;;;;;;;;;;;18.20;70.60;;;22.04;38.87;95095.91;6084683;19;20006;-60
2021/11/08 09:31:49;;;;;;;1.63;0.85;;;18.30;70.70;;;22.03;38.85;95097.81;6078411;19;20671;-60
2021/11/08 09:33:52;;;;;;;0.95;0.77;;;18.20;70.70;;;22.04;39.08;95096.72;6069139;19;20022;-60
2021/11/08 09:35:59;;;;;;;;;;;18.20;70.70;;;22.04;38.76;95096.72;6084038;19;20019;-60
2021/11/08 09:38:02;;;;;;;0.95;0.70;;;18.20;70.70;;;22.04;38.90;95102.13;6081073;19;19926;-59
2021/11/08 09:40:05;;;;;;;0.75;0.60;;;18.20;70.70;;;22.03;38.81;95100.53;6079366;19;20010;-59
2021/11/08 09:42:10;;;;;;;0.50;0.50;;;18.20;70.70;;;22.04;38.95;95091.28;6081321;19;20022;-59
2021/11/08 09:44:11;;;;;;;1.25;1.15;;;18.20;70.80;;;22.06;38.91;95094.47;6071400;19;20011;-59
2021/11/08 09:46:14;;;;;;;0.75;0.73;;;18.20;70.80;;;22.05;39.12;95095.59;6076582;19;20014;-61
2021/11/08 09:48:15;;;;;;;2.20;0.88;;;18.20;70.90;;;22.07;38.85;95095.25;6074526;19;20051;-59
2021/11/08 09:50:22;;;;;;;1.05;0.70;;;18.20;70.80;;;22.07;39.24;95101.50;6078108;19;20133;-61
2021/11/08 09:52:24;;;;;;;1.80;0.60;;;18.20;70.80;;;22.07;39.13;95106.91;6080527;19;20070;-60
2021/11/08 09:54:28;;;;;;;1.02;0.60;;;18.20;70.90;;;22.07;39.18;95098.78;6073707;19;20006;-60
2021/11/08 09:56:29;;;;;;;0.50;0.50;;;18.30;71.30;;;22.08;38.86;95107.72;6071787;19;20060;-61
2021/11/08 09:58:30;;;;;;;0.70;0.70;;;18.20;70.90;;;22.08;38.90;95102.28;6070242;19;20010;-59
2021/11/08 10:00:37;;;;;;;0.70;0.70;;;18.20;70.90;;;22.08;38.94;95097.66;6062916;19;20014;-60
2021/11/08 10:02:38;;;;;;;2.75;0.80;;;18.30;71.00;;;22.10;39.19;95094.63;6061314;19;20011;-61
2021/11/08 10:04:43;;;;;;;0.90;0.63;;;18.20;70.90;;;22.09;39.24;95091.09;6082229;19;20018;-60
2021/11/08 10:06:46;;;;;;;0.75;0.75;;;18.30;71.00;;;22.10;39.08;95092.69;6071058;19;20033;-60
2021/11/08 10:08:48;;;;;;;0.55;0.45;;;18.30;71.10;;;22.10;39.16;95098.13;6069823;19;20044;-61
2021/11/08 10:10:56;;;;;;;3.38;1.00;;;18.30;71.00;;;22.10;39.27;95094.63;6076224;19;20014;-60
2021/11/08 10:13:07;;;;;;;1.90;0.52;;;18.20;70.90;;;22.09;38.88;95093.81;6077049;19;20369;-59
2021/11/08 10:15:09;;;;;;;1.45;0.80;;;18.20;70.90;;;22.10;39.28;95089.19;6078846;19;20463;-61
2021/11/08 10:17:10;;;;;;;0.88;0.75;;;18.30;71.00;;;22.08;38.87;95089.50;6070192;19;20019;-59
2021/11/08 10:19:14;;;;;;;0.70;0.63;;;18.30;71.00;;;22.09;39.19;95096.53;6075186;19;20452;-61
2021/11/08 10:21:19;;;;;;;0.80;0.50;;;18.30;71.00;;;22.09;38.97;95093.81;6043110;19;20011;-61